Time;durP1;ratioP1;P1;durP2;ratioP2;P2;SDS_P1;SDS_P2;PMS_P1;PMS_P2;Temp;Humidity;BMP_temperature;BMP_pressure;BME280_temperature;BME280_humidity;BME280_pressure;Samples;Min_cycle;Max_cycle;Signal;HPM_P1;HPM_P2
2022/11/16 00:01:39;;;;;;;187.00;157.90;;;;;;;7.77;100.00;98200.72;106094;1293;60041;-77
2022/11/16 00:04:06;;;;;;;202.60;164.10;;;;;;;7.78;100.00;98190.05;106517;1283;61519;-77
2022/11/16 00:06:32;;;;;;;206.60;164.10;;;;;;;7.80;100.00;98180.00;106308;1284;76347;-76
2022/11/16 00:11:54;;;;;;;199.30;160.00;;;;;;;7.81;100.00;98178.87;106491;1284;65540;-76
2022/11/16 00:14:22;;;;;;;195.10;156.40;;;;;;;7.82;100.00;98172.98;106519;1286;59711;-77
2022/11/16 00:16:49;;;;;;;190.90;155.30;;;;;;;7.83;100.00;98169.52;106517;1292;60304;-77
2022/11/16 00:19:16;;;;;;;193.40;155.00;;;;;;;7.84;100.00;98161.69;106510;1281;68094;-77
2022/11/16 00:21:43;;;;;;;200.70;158.90;;;;;;;7.85;100.00;98158.08;106515;1284;59996;-77
2022/11/16 00:24:15;;;;;;;199.70;162.20;;;;;;;7.85;100.00;98155.58;106507;1289;65063;-77
2022/11/16 00:26:42;;;;;;;193.60;157.70;;;;;;;7.86;100.00;98155.73;106520;1286;60015;-76
2022/11/16 00:29:23;;;;;;;198.40;154.70;;;;;;;7.85;100.00;98157.70;106524;1286;59856;-76
2022/11/16 00:31:51;;;;;;;196.80;159.80;;;;;;;7.84;100.00;98157.27;106516;1285;67651;-76
2022/11/16 00:34:17;;;;;;;210.20;161.30;;;;;;;7.84;100.00;98159.73;106323;1284;60143;-77
2022/11/16 00:36:45;;;;;;;210.30;166.30;;;;;;;7.85;100.00;98158.95;106559;1285;63844;-76
2022/11/16 00:39:13;;;;;;;205.70;162.30;;;;;;;7.86;100.00;98161.16;106515;1281;59680;-76
2022/11/16 00:41:40;;;;;;;201.80;162.50;;;;;;;7.88;100.00;98160.88;106523;1281;59707;-76
2022/11/16 00:44:08;;;;;;;198.30;158.70;;;;;;;7.89;100.00;98164.01;106547;1286;76595;-77
2022/11/16 00:46:34;;;;;;;207.80;166.30;;;;;;;7.89;100.00;98166.45;106499;1282;61307;-76
2022/11/16 00:49:01;;;;;;;205.80;164.80;;;;;;;7.90;100.00;98169.59;106481;1281;65095;-76
2022/11/16 00:51:28;;;;;;;206.00;165.80;;;;;;;7.91;100.00;98167.18;106484;1285;59680;-76
2022/11/16 00:53:54;;;;;;;206.90;163.10;;;;;;;7.92;100.00;98166.79;106520;1281;60220;-77
2022/11/16 00:56:21;;;;;;;215.60;171.20;;;;;;;7.93;100.00;98163.01;106528;1286;67973;-76
2022/11/16 00:58:48;;;;;;;217.50;167.60;;;;;;;7.94;100.00;98161.70;106521;1284;61338;-77
2022/11/16 01:01:15;;;;;;;204.20;160.20;;;;;;;7.93;100.00;98158.42;106496;1285;62882;-77
2022/11/16 01:03:42;;;;;;;202.20;158.10;;;;;;;7.92;100.00;98156.88;106532;1286;59756;-76
2022/11/16 01:06:11;;;;;;;200.50;154.10;;;;;;;7.91;100.00;98149.85;106509;1285;60015;-77
2022/11/16 01:08:39;;;;;;;201.90;151.20;;;;;;;7.92;100.00;98148.58;106524;1282;65474;-76
2022/11/16 01:13:53;;;;;;;192.80;149.90;;;;;;;7.90;100.00;98140.05;106498;1284;73757;-76
2022/11/16 01:16:21;;;;;;;189.30;146.80;;;;;;;7.89;100.00;98136.01;106298;1292;59700;-78
2022/11/16 01:18:50;;;;;;;186.40;145.30;;;;;;;7.90;100.00;98130.50;106543;1281;59657;-76
2022/11/16 01:21:18;;;;;;;185.30;145.40;;;;;;;7.90;100.00;98126.77;106511;1285;67195;-76
2022/11/16 01:23:44;;;;;;;181.00;142.70;;;;;;;7.90;100.00;98119.01;106326;1285;61010;-75
2022/11/16 01:26:11;;;;;;;179.80;140.60;;;;;;;7.89;100.00;98114.11;106498;1278;63930;-75
2022/11/16 01:28:38;;;;;;;179.00;142.80;;;;;;;7.88;100.00;98112.39;106501;1286;59975;-76
2022/11/16 01:31:05;;;;;;;187.00;144.10;;;;;;;7.89;100.00;98110.74;106528;1284;59704;-76
2022/11/16 01:33:31;;;;;;;180.20;137.70;;;;;;;7.90;100.00;98104.33;106529;1282;66825;-76
2022/11/16 01:35:58;;;;;;;176.60;138.30;;;;;;;7.91;100.00;98101.98;106511;1284;60644;-77
2022/11/16 01:38:24;;;;;;;173.90;138.50;;;;;;;7.92;100.00;98094.47;106493;1289;72472;-76
2022/11/16 01:40:51;;;;;;;182.60;139.90;;;;;;;7.93;100.00;98091.21;106496;1285;59684;-76
2022/11/16 01:43:22;;;;;;;185.10;140.60;;;;;;;7.94;100.00;98089.93;106538;1286;59699;-76
2022/11/16 01:45:49;;;;;;;177.90;136.90;;;;;;;7.95;100.00;98085.05;106360;1286;66775;-76
2022/11/16 01:48:24;;;;;;;169.30;134.50;;;;;;;7.95;100.00;98077.98;106525;1284;61382;-75
2022/11/16 01:50:52;;;;;;;180.20;140.60;;;;;;;7.95;100.00;98073.58;106494;1278;65109;-76
2022/11/16 01:53:19;;;;;;;186.00;142.70;;;;;;;7.95;100.00;98069.67;106498;1285;59795;-76
2022/11/16 01:55:47;;;;;;;177.20;139.30;;;;;;;7.97;100.00;98068.13;106355;1285;59849;-75
2022/11/16 01:58:18;;;;;;;174.80;134.30;;;;;;;7.98;100.00;98062.04;106506;1284;68048;-76
2022/11/16 02:00:45;;;;;;;177.70;141.30;;;;;;;7.99;100.00;98058.79;106511;1278;61376;-76
2022/11/16 02:03:12;;;;;;;184.70;146.70;;;;;;;8.00;100.00;98057.80;106496;1281;65020;-76
2022/11/16 02:06:03;;;;;;;176.60;145.70;;;;;;;8.01;100.00;98053.30;106492;1285;59651;-76
2022/11/16 02:12:09;;;;;;;175.90;139.70;;;;;;;8.02;100.00;98053.29;106518;1278;76566;-77
2022/11/16 02:14:57;;;;;;;174.60;138.50;;;;;;;8.02;100.00;98050.09;106494;1285;61039;-76
2022/11/16 02:17:35;;;;;;;180.40;140.10;;;;;;;8.02;100.00;98048.82;106495;1281;64262;-76
2022/11/16 02:20:39;;;;;;;180.20;140.30;;;;;;;8.02;100.00;98047.95;106513;1286;59918;-76
2022/11/16 02:23:23;;;;;;;173.50;139.60;;;;;;;8.01;100.00;98049.82;106530;1285;61506;-76
2022/11/16 02:26:08;;;;;;;175.60;138.50;;;;;;;8.00;100.00;98053.07;106512;1281;66748;-77
2022/11/16 02:29:02;;;;;;;178.70;140.80;;;;;;;7.98;100.00;98053.52;106521;1286;68794;-76
2022/11/16 02:31:34;;;;;;;169.70;137.20;;;;;;;7.96;100.00;98046.92;106513;1281;62903;-76
2022/11/16 02:34:04;;;;;;;173.10;138.00;;;;;;;7.95;100.00;98040.14;106509;1286;59587;-76
2022/11/16 02:36:33;;;;;;;171.00;137.50;;;;;;;7.94;100.00;98037.72;106524;1278;59818;-76
2022/11/16 02:39:06;;;;;;;182.20;144.90;;;;;;;7.94;100.00;98037.88;106544;1277;68055;-77
2022/11/16 02:41:36;;;;;;;175.80;142.50;;;;;;;7.96;100.00;98034.74;106515;1285;61268;-76
2022/11/16 02:44:06;;;;;;;;;;;;;;;7.98;100.00;98027.91;106518;1286;65251;-76
2022/11/16 02:46:38;;;;;;;175.40;134.60;;;;;;;7.99;100.00;98024.85;106499;1289;59689;-77
2022/11/16 02:49:12;;;;;;;177.00;135.10;;;;;;;7.99;100.00;98017.02;106536;1278;59950;-76
2022/11/16 02:51:40;;;;;;;176.80;137.20;;;;;;;7.99;100.00;98017.37;106551;1278;67876;-77
2022/11/16 02:54:11;;;;;;;163.10;135.50;;;;;;;7.99;100.00;98014.89;106142;1288;61107;-76
2022/11/16 02:57:02;;;;;;;177.30;137.50;;;;;;;8.00;100.00;98015.70;106502;1285;63916;-76
2022/11/16 02:59:35;;;;;;;175.40;134.60;;;;;;;8.02;100.00;98016.64;106098;1288;60275;-76
2022/11/16 03:02:25;;;;;;;166.80;130.10;;;;;;;8.03;100.00;98019.23;106500;1278;59605;-76
2022/11/16 03:05:06;;;;;;;167.00;129.80;;;;;;;8.04;100.00;98018.95;105772;1292;67574;-77
2022/11/16 03:07:45;;;;;;;159.60;121.00;;;;;;;8.06;100.00;98022.00;105749;1292;60172;-76
2022/11/16 03:11:58;;;;;;;162.60;125.10;;;;;;;8.07;100.00;98025.98;105766;1294;65267;-76
2022/11/16 03:13:02;;;;;;;163.00;122.40;;;;;;;8.07;100.00;98025.96;105745;1284;60064;-76
2022/11/16 03:15:29;;;;;;;156.00;123.10;;;;;;;8.07;100.00;98027.60;105736;1291;61487;-77
2022/11/16 03:17:58;;;;;;;163.60;126.80;;;;;;;8.07;100.00;98033.09;105773;1285;66780;-76
2022/11/16 03:20:28;;;;;;;163.50;128.80;;;;;;;8.05;100.00;98033.55;105763;1292;60246;-76
2022/11/16 03:23:01;;;;;;;159.90;125.40;;;;;;;8.03;100.00;98035.64;105742;1292;72903;-76
2022/11/16 03:25:38;;;;;;;159.50;123.90;;;;;;;8.03;100.00;98032.68;105752;1300;59706;-76
2022/11/16 03:28:14;;;;;;;155.90;121.30;;;;;;;8.03;100.00;98029.48;105767;1292;59771;-76
2022/11/16 03:30:51;;;;;;;156.40;120.60;;;;;;;8.03;100.00;98026.46;105788;1292;66891;-76
2022/11/16 03:33:29;;;;;;;154.20;117.90;;;;;;;8.02;100.00;98029.15;105665;1293;60112;-76
2022/11/16 03:36:00;;;;;;;154.20;119.10;;;;;;;8.02;100.00;98029.52;105758;1294;65174;-77
2022/11/16 03:38:27;;;;;;;153.80;118.80;;;;;;;8.02;100.00;98023.92;105743;1292;60034;-75
2022/11/16 03:41:07;;;;;;;152.20;119.40;;;;;;;8.01;100.00;98019.34;105633;1297;59654;-75
2022/11/16 03:43:35;;;;;;;159.70;124.00;;;;;;;8.00;100.00;98017.45;106308;1285;74837;-76
2022/11/16 03:46:01;;;;;;;160.00;124.20;;;;;;;8.00;100.00;98016.98;106313;1286;61240;-76
2022/11/16 03:48:34;;;;;;;163.10;128.40;;;;;;;7.99;100.00;98017.56;106301;1288;65232;-76
2022/11/16 03:51:01;;;;;;;168.50;128.80;;;;;;;7.99;100.00;98016.52;106304;1286;59771;-76
2022/11/16 03:53:28;;;;;;;170.20;132.30;;;;;;;7.99;100.00;98017.54;106310;1285;59710;-76
2022/11/16 03:55:54;;;;;;;164.00;127.60;;;;;;;8.00;100.00;98016.22;106295;1285;68232;-76
2022/11/16 03:58:21;;;;;;;161.70;123.20;;;;;;;8.00;100.00;98016.91;106294;1278;68974;-76
2022/11/16 04:00:48;;;;;;;173.30;130.40;;;;;;;8.01;100.00;98013.02;106276;1285;64355;-76
2022/11/16 04:03:14;;;;;;;165.70;128.40;;;;;;;8.00;100.00;98013.92;106286;1278;59662;-77
2022/11/16 04:25:31;;;;;;;180.90;141.60;;;;;;;7.94;100.00;97996.50;106384;1283;59963;-78
2022/11/16 04:28:13;;;;;;;180.30;138.80;;;;;;;7.92;100.00;97991.15;106498;1292;65198;-77
2022/11/16 04:38:57;;;;;;;186.50;145.90;;;;;;;7.88;100.00;97975.22;106520;1276;60368;-77
2022/11/16 04:44:09;;;;;;;192.00;145.80;;;;;;;7.86;100.00;97968.61;106520;1278;59761;-77
2022/11/16 04:49:32;;;;;;;196.10;150.70;;;;;;;7.87;100.00;97966.95;105850;1291;76644;-77
2022/11/16 04:51:58;;;;;;;194.50;150.60;;;;;;;7.86;100.00;97963.09;105685;1279;60363;-76
2022/11/16 04:54:25;;;;;;;210.50;162.90;;;;;;;7.87;100.00;97964.48;105874;1292;65100;-76
2022/11/16 04:56:51;;;;;;;205.70;158.10;;;;;;;7.88;100.00;97960.81;105863;1291;59721;-75
2022/11/16 04:59:18;;;;;;;208.70;162.30;;;;;;;7.90;100.00;97957.70;105863;1291;59822;-76
2022/11/16 05:04:30;;;;;;;202.60;157.40;;;;;;;7.92;100.00;97957.77;105867;1284;60405;-76
2022/11/16 05:06:56;;;;;;;186.40;147.90;;;;;;;7.91;100.00;97953.36;105858;1291;71682;-76
2022/11/16 05:09:23;;;;;;;197.50;145.40;;;;;;;7.93;100.00;97942.28;105885;1284;59972;-76
2022/11/16 05:11:50;;;;;;;198.60;146.40;;;;;;;7.94;100.00;97938.30;105873;1291;59720;-77
2022/11/16 05:14:16;;;;;;;190.40;141.40;;;;;;;7.96;100.00;97934.84;105667;1286;74510;-77
2022/11/16 05:16:43;;;;;;;177.70;136.20;;;;;;;7.95;100.00;97928.70;105879;1291;60700;-76
2022/11/16 05:22:00;;;;;;;186.50;136.00;;;;;;;7.93;100.00;97920.52;106271;1286;59744;-76
2022/11/16 05:24:32;;;;;;;177.60;131.90;;;;;;;7.93;100.00;97919.64;106554;1286;59664;-76
2022/11/16 05:27:01;;;;;;;174.10;130.60;;;;;;;7.94;100.00;97918.39;106549;1278;75552;-77
2022/11/16 05:29:27;;;;;;;174.70;126.20;;;;;;;7.94;100.00;97918.50;106513;1278;59982;-75
2022/11/16 05:31:54;;;;;;;172.90;123.80;;;;;;;7.95;100.00;97918.64;106509;1282;65261;-75
2022/11/16 05:34:20;;;;;;;160.60;120.70;;;;;;;7.95;100.00;97920.37;106528;1285;59688;-76
2022/11/16 05:36:47;;;;;;;168.30;123.20;;;;;;;7.96;100.00;97921.58;106517;1278;59854;-76
2022/11/16 05:39:13;;;;;;;160.50;118.30;;;;;;;7.96;100.00;97915.55;106164;1284;66867;-78
2022/11/16 05:41:40;;;;;;;155.80;113.50;;;;;;;7.97;100.00;97914.21;106491;1278;61227;-76
2022/11/16 05:44:06;;;;;;;152.00;112.90;;;;;;;7.98;100.00;97916.83;106147;1289;62709;-78
2022/11/16 05:46:33;;;;;;;152.70;110.50;;;;;;;7.98;100.00;97916.13;106498;1277;59721;-77
2022/11/16 05:49:00;;;;;;;144.70;108.00;;;;;;;7.99;100.00;97916.41;106529;1285;59675;-77
2022/11/16 05:51:26;;;;;;;146.10;107.10;;;;;;;7.99;100.00;97913.73;106536;1285;67712;-77
2022/11/16 05:53:53;;;;;;;140.50;103.60;;;;;;;8.00;100.00;97911.03;106504;1278;60993;-76
2022/11/16 05:56:19;;;;;;;145.40;106.20;;;;;;;8.00;100.00;97911.15;106502;1284;64963;-76
2022/11/16 05:58:46;;;;;;;141.90;104.20;;;;;;;8.01;100.00;97911.30;106495;1286;59786;-77
2022/11/16 06:01:12;;;;;;;133.80;101.80;;;;;;;8.02;100.00;97914.06;106133;1288;59773;-76
2022/11/16 06:03:39;;;;;;;136.00;101.10;;;;;;;8.02;100.00;97914.89;106513;1285;67981;-76
2022/11/16 06:06:06;;;;;;;131.70;95.50;;;;;;;8.02;100.00;97915.06;106519;1278;60297;-76
2022/11/16 06:08:32;;;;;;;128.50;94.00;;;;;;;8.02;100.00;97914.23;106495;1286;74167;-77
2022/11/16 06:11:03;;;;;;;120.60;89.10;;;;;;;8.02;100.00;97913.48;106535;1277;59738;-76
2022/11/16 06:13:31;;;;;;;123.60;90.10;;;;;;;8.03;100.00;97912.55;106515;1278;59584;-78
2022/11/16 06:16:00;;;;;;;118.10;86.00;;;;;;;8.03;100.00;97912.20;106536;1278;67775;-77
2022/11/16 06:18:27;;;;;;;120.20;85.00;;;;;;;8.03;100.00;97911.31;106361;1285;69962;-78
2022/11/16 06:20:55;;;;;;;110.10;83.30;;;;;;;8.02;100.00;97913.33;106484;1285;73824;-78
2022/11/16 06:23:22;;;;;;;111.00;84.00;;;;;;;8.01;100.00;97914.30;106301;1285;59630;-78
2022/11/16 06:25:55;;;;;;;118.00;91.60;;;;;;;8.01;100.00;97910.77;106142;1285;59888;-77
2022/11/16 06:28:22;;;;;;;124.40;95.20;;;;;;;8.02;100.00;97904.16;106540;1276;68086;-78
2022/11/16 06:30:49;;;;;;;126.40;97.00;;;;;;;8.02;100.00;97903.95;106545;1286;61369;-78
2022/11/16 06:33:16;;;;;;;127.40;96.90;;;;;;;8.03;100.00;97902.64;106131;1285;65214;-77
2022/11/16 06:35:43;;;;;;;114.60;87.00;;;;;;;8.04;100.00;97901.89;106297;1285;59634;-77
2022/11/16 06:38:17;;;;;;;113.40;84.80;;;;;;;8.05;100.00;97901.80;106533;1286;59933;-77
2022/11/16 06:40:45;;;;;;;108.60;80.70;;;;;;;8.06;100.00;97897.96;106534;1279;74381;-78
2022/11/16 06:43:11;;;;;;;102.80;77.20;;;;;;;8.08;100.00;97897.52;106258;1281;59726;-77
2022/11/16 06:45:38;;;;;;;99.60;73.90;;;;;;;8.09;100.00;97896.75;106509;1285;59816;-77
2022/11/16 06:48:04;;;;;;;102.00;71.70;;;;;;;8.09;100.00;97897.42;106503;1278;59680;-77
2022/11/16 06:50:31;;;;;;;99.00;70.20;;;;;;;8.09;100.00;97896.67;106544;1284;59681;-77
2022/11/16 06:52:59;;;;;;;94.30;67.90;;;;;;;8.10;100.00;97894.31;106515;1276;74417;-77
2022/11/16 06:55:27;;;;;;;86.30;65.90;;;;;;;8.11;100.00;97894.98;106539;1282;69915;-77
2022/11/16 06:57:54;;;;;;;91.60;66.50;;;;;;;8.10;100.00;97893.77;106538;1278;64923;-76
2022/11/16 07:00:20;;;;;;;95.80;66.80;;;;;;;8.11;100.00;97895.29;106512;1285;59767;-78
2022/11/16 07:02:47;;;;;;;88.40;65.30;;;;;;;8.13;100.00;97896.45;106546;1286;59565;-78
2022/11/16 07:05:14;;;;;;;90.70;65.40;;;;;;;8.12;100.00;97890.61;106522;1282;74226;-77
2022/11/16 07:07:40;;;;;;;82.40;60.50;;;;;;;8.14;100.00;97895.63;106498;1285;69681;-77
2022/11/16 07:10:07;;;;;;;82.20;61.10;;;;;;;8.14;100.00;97896.11;106534;1281;62632;-77
2022/11/16 07:12:34;;;;;;;81.20;59.10;;;;;;;8.14;100.00;97894.94;106524;1278;59666;-78
2022/11/16 07:15:00;;;;;;;91.00;61.60;;;;;;;8.12;100.00;97892.00;106525;1285;59636;-78
2022/11/16 07:17:27;;;;;;;83.70;60.70;;;;;;;8.12;100.00;97893.65;106519;1286;76473;-78
2022/11/16 07:19:53;;;;;;;84.30;59.70;;;;;;;8.12;100.00;97890.48;106473;1285;59711;-78
2022/11/16 07:22:20;;;;;;;84.90;64.10;;;;;;;8.11;100.00;97887.71;106538;1281;63902;-79
2022/11/16 07:24:47;;;;;;;88.00;63.90;;;;;;;8.11;100.00;97887.50;106511;1283;59566;-78
2022/11/16 07:27:13;;;;;;;89.30;67.50;;;;;;;8.11;100.00;97886.13;106567;1284;59693;-77
2022/11/16 07:29:40;;;;;;;98.90;71.20;;;;;;;8.10;100.00;97884.91;106537;1286;74441;-79
2022/11/16 07:32:06;;;;;;;96.60;69.50;;;;;;;8.09;100.00;97880.39;106529;1279;59697;-78
2022/11/16 07:34:33;;;;;;;85.00;66.20;;;;;;;8.10;100.00;97879.63;106484;1278;72835;-77
2022/11/16 07:36:59;;;;;;;83.90;60.30;;;;;;;8.11;100.00;97877.08;106539;1278;59795;-78
2022/11/16 07:39:26;;;;;;;84.90;59.60;;;;;;;8.13;100.00;97878.33;106532;1278;59687;-77
2022/11/16 07:41:53;;;;;;;86.60;61.30;;;;;;;8.15;100.00;97879.79;106171;1276;60376;-78
2022/11/16 07:44:19;;;;;;;83.70;59.10;;;;;;;8.17;100.00;97881.43;106175;1280;60399;-77
2022/11/16 07:46:46;;;;;;;88.50;60.50;;;;;;;8.17;100.00;97883.00;106488;1285;72534;-78
2022/11/16 07:49:14;;;;;;;86.70;58.40;;;;;;;8.19;100.00;97882.16;106524;1278;59700;-77
2022/11/16 07:51:40;;;;;;;88.70;63.70;;;;;;;8.22;100.00;97880.71;106521;1281;60915;-78
2022/11/16 07:54:10;;;;;;;85.20;60.00;;;;;;;8.25;100.00;97873.72;106513;1279;75390;-77
2022/11/16 07:56:37;;;;;;;98.50;67.00;;;;;;;8.29;100.00;97871.52;106523;1278;69066;-77
2022/11/16 07:59:04;;;;;;;100.30;67.70;;;;;;;8.32;100.00;97871.11;106521;1278;73029;-78
2022/11/16 08:01:32;;;;;;;100.60;68.70;;;;;;;8.34;100.00;97868.11;106582;1278;59812;-78
2022/11/16 08:04:00;;;;;;;92.40;63.00;;;;;;;8.35;100.00;97870.46;106267;1285;60722;-78
2022/11/16 08:06:29;;;;;;;86.40;60.10;;;;;;;8.36;100.00;97866.17;106347;1285;66973;-78
2022/11/16 08:08:56;;;;;;;79.20;54.20;;;;;;;8.39;100.00;97863.67;106531;1285;59877;-77
2022/11/16 08:11:23;;;;;;;80.60;52.70;;;;;;;8.42;100.00;97861.55;106314;1285;73923;-78
2022/11/16 08:13:49;;;;;;;78.50;54.00;;;;;;;8.43;100.00;97859.83;106131;1294;59820;-79
2022/11/16 08:16:18;;;;;;;77.70;53.90;;;;;;;8.48;100.00;97857.74;106521;1283;61431;-79
2022/11/16 08:18:45;;;;;;;81.30;53.60;;;;;;;8.54;100.00;97855.13;106523;1278;75509;-79
2022/11/16 08:21:15;;;;;;;74.30;50.70;;;;;;;8.58;100.00;97856.60;106512;1284;68641;-78
2022/11/16 08:23:41;;;;;;;69.30;49.10;;;;;;;8.62;100.00;97856.66;106536;1276;72628;-78
2022/11/16 08:26:13;;;;;;;71.00;47.30;;;;;;;8.65;100.00;97856.36;106342;1278;59795;-78
2022/11/16 08:28:41;;;;;;;64.90;45.20;;;;;;;8.71;100.00;97858.40;106532;1281;59511;-78
2022/11/16 08:31:19;;;;;;;80.80;50.20;;;;;;;8.80;100.00;97849.21;106522;1276;76043;-78
2022/11/16 08:33:47;;;;;;;79.40;50.20;;;;;;;8.90;100.00;97846.65;106536;1284;61242;-78
2022/11/16 08:36:16;;;;;;;64.90;45.20;;;;;;;9.02;100.00;97843.05;106379;1284;62680;-78
2022/11/16 08:38:43;;;;;;;68.50;47.00;;;;;;;9.13;100.00;97844.27;106528;1285;59780;-78
2022/11/16 08:41:10;;;;;;;68.90;48.50;;;;;;;9.22;100.00;97844.46;106510;1284;59997;-77
2022/11/16 08:43:55;;;;;;;67.40;46.20;;;;;;;9.31;100.00;97845.71;106526;1278;68031;-78
2022/11/16 08:46:21;;;;;;;65.70;46.30;;;;;;;9.36;100.00;97841.94;106151;1281;60081;-77
2022/11/16 08:48:48;;;;;;;70.30;48.10;;;;;;;9.38;100.00;97840.20;106481;1286;64045;-78
2022/11/16 08:51:17;;;;;;;69.40;47.70;;;;;;;9.40;100.00;97840.91;106506;1278;59642;-78
2022/11/16 08:53:44;;;;;;;60.70;44.30;;;;;;;9.42;100.00;97843.41;106507;1286;60176;-79
2022/11/16 08:56:14;;;;;;;62.80;43.20;;;;;;;9.42;100.00;97845.68;106506;1285;65619;-77
2022/11/16 08:58:45;;;;;;;67.90;46.10;;;;;;;9.41;100.00;97847.22;106368;1285;61607;-78
2022/11/16 09:01:17;;;;;;;64.70;45.40;;;;;;;9.39;100.00;97846.98;106501;1285;64937;-78
2022/11/16 09:03:45;;;;;;;66.50;44.80;;;;;;;9.35;100.00;97851.05;106551;1278;60668;-78
2022/11/16 09:06:12;;;;;;;59.60;41.90;;;;;;;9.31;100.00;97852.45;106519;1279;59877;-78
2022/11/16 09:08:41;;;;;;;68.40;46.80;;;;;;;9.27;100.00;97852.75;106522;1285;65502;-78
2022/11/16 09:11:14;;;;;;;64.90;45.30;;;;;;;9.28;100.00;97850.94;106544;1285;61312;-77
2022/11/16 09:13:42;;;;;;;69.10;48.00;;;;;;;9.29;100.00;97850.14;106138;1281;65282;-78
2022/11/16 09:16:09;;;;;;;71.00;46.80;;;;;;;9.31;100.00;97845.88;106373;1285;59711;-78
2022/11/16 09:18:36;;;;;;;64.10;44.80;;;;;;;9.36;100.00;97845.02;106348;1285;60186;-77
2022/11/16 09:21:03;;;;;;;63.80;46.80;;;;;;;9.39;100.00;97837.13;106357;1272;75108;-77
2022/11/16 09:23:29;;;;;;;65.40;45.80;;;;;;;9.36;100.00;97836.65;106345;1276;59727;-76
2022/11/16 09:26:00;;;;;;;65.20;46.90;;;;;;;9.37;100.00;97835.52;106379;1285;64068;-77
2022/11/16 09:28:26;;;;;;;61.70;42.70;;;;;;;9.42;100.00;97834.34;106343;1278;59636;-77
2022/11/16 09:30:53;;;;;;;65.40;44.30;;;;;;;9.47;100.00;97833.98;106346;1278;59578;-77
2022/11/16 09:33:19;;;;;;;64.80;43.90;;;;;;;9.48;100.00;97834.11;106348;1278;60362;-78
2022/11/16 09:35:46;;;;;;;63.70;43.70;;;;;;;9.48;100.00;97834.27;106343;1278;60021;-77
2022/11/16 09:38:12;;;;;;;54.00;37.60;;;;;;;9.44;100.00;97835.79;106345;1285;64012;-78
2022/11/16 09:40:43;;;;;;;52.80;38.30;;;;;;;9.38;100.00;97836.81;106374;1284;59673;-77
2022/11/16 09:43:16;;;;;;;55.10;37.50;;;;;;;9.34;100.00;97830.27;106348;1285;59947;-78
2022/11/16 09:45:57;;;;;;;54.90;37.20;;;;;;;9.28;100.00;97834.13;106122;1281;68038;-78
2022/11/16 09:48:24;;;;;;;51.70;37.30;;;;;;;9.22;100.00;97831.18;106345;1285;60041;-78
2022/11/16 09:50:54;;;;;;;58.60;38.50;;;;;;;9.17;100.00;97827.52;106346;1285;65250;-78
2022/11/16 09:53:27;;;;;;;50.80;36.70;;;;;;;9.14;100.00;97824.23;106248;1288;59674;-77
2022/11/16 09:55:59;;;;;;;55.00;37.10;;;;;;;9.11;100.00;97822.70;106349;1285;59804;-78
2022/11/16 09:58:33;;;;;;;53.00;36.10;;;;;;;9.08;100.00;97817.80;106349;1285;76627;-79
2022/11/16 10:01:11;;;;;;;55.50;37.80;;;;;;;9.04;100.00;97814.18;106138;1281;61028;-78
2022/11/16 10:03:42;;;;;;;60.00;40.90;;;;;;;9.02;100.00;97809.39;106364;1285;65201;-78
2022/11/16 10:06:22;;;;;;;55.90;39.80;;;;;;;9.01;100.00;97809.09;106374;1277;59646;-78
2022/11/16 10:08:52;;;;;;;59.80;37.80;;;;;;;9.00;100.00;97807.26;106366;1278;59870;-78
2022/11/16 10:11:21;;;;;;;59.60;39.70;;;;;;;8.98;100.00;97801.73;106358;1284;67175;-77
2022/11/16 10:14:25;;;;;;;59.70;39.90;;;;;;;8.99;100.00;97800.81;106382;1284;61482;-79
2022/11/16 10:17:18;;;;;;;59.00;38.70;;;;;;;8.99;100.00;97798.44;106386;1278;62710;-78
2022/11/16 10:20:03;;;;;;;58.10;39.70;;;;;;;8.99;100.00;97791.24;105676;1288;59890;-78
2022/11/16 10:22:50;;;;;;;55.60;37.30;;;;;;;8.97;100.00;97790.44;105665;1287;59712;-76
2022/11/16 10:25:27;;;;;;;57.40;41.20;;;;;;;8.98;100.00;97789.36;105637;1287;66840;-77
2022/11/16 10:28:21;;;;;;;55.60;38.20;;;;;;;8.99;100.00;97782.32;105676;1294;61320;-78
2022/11/16 10:31:12;;;;;;;57.90;40.10;;;;;;;9.01;100.00;97775.80;105666;1286;71917;-78
2022/11/16 10:33:42;;;;;;;64.20;43.50;;;;;;;9.03;100.00;97774.80;105636;1295;59734;-77
2022/11/16 10:36:14;;;;;;;64.60;44.80;;;;;;;9.06;100.00;97771.91;105634;1295;60018;-77
2022/11/16 10:38:43;;;;;;;63.00;41.10;;;;;;;9.09;100.00;97767.94;105683;1294;66803;-77
2022/11/16 10:41:15;;;;;;;63.70;42.80;;;;;;;9.11;100.00;97764.33;105688;1301;61161;-78
2022/11/16 10:43:43;;;;;;;62.00;41.50;;;;;;;9.15;100.00;97764.60;105650;1287;64823;-77
2022/11/16 10:46:45;;;;;;;67.40;43.50;;;;;;;9.18;100.00;97763.48;105673;1294;59788;-77
2022/11/16 10:49:41;;;;;;;59.90;43.10;;;;;;;9.19;100.00;97760.21;105265;1292;60088;-78
2022/11/16 10:52:07;;;;;;;62.60;43.60;;;;;;;9.20;100.00;97762.96;104649;1306;67910;-78
2022/11/16 10:54:34;;;;;;;64.00;42.90;;;;;;;9.19;100.00;97762.65;104663;1305;61116;-77
2022/11/16 10:57:12;;;;;;;62.90;43.00;;;;;;;9.19;100.00;97760.39;104936;1298;59810;-77
2022/11/16 10:59:45;;;;;;;64.10;44.80;;;;;;;9.17;100.00;97757.88;105443;1290;59749;-78
2022/11/16 11:02:24;;;;;;;61.90;42.40;;;;;;;9.16;100.00;97761.11;105344;1292;60226;-77
2022/11/16 11:05:19;;;;;;;65.40;43.80;;;;;;;9.13;100.00;97760.69;105469;1304;65473;-77
2022/11/16 11:07:51;;;;;;;64.70;43.50;;;;;;;9.11;100.00;97761.91;105366;1297;69768;-77
2022/11/16 11:10:37;;;;;;;61.70;43.20;;;;;;;9.07;100.00;97758.33;105458;1297;73245;-77
2022/11/16 11:13:09;;;;;;;66.10;44.20;;;;;;;9.05;100.00;97757.23;105461;1297;59729;-77
2022/11/16 11:15:41;;;;;;;64.80;44.90;;;;;;;9.04;100.00;97761.63;105469;1297;59846;-79
2022/11/16 11:18:22;;;;;;;68.70;44.20;;;;;;;9.03;100.00;97759.91;105452;1297;66705;-78
2022/11/16 11:21:19;;;;;;;62.30;42.90;;;;;;;9.01;100.00;97755.97;105437;1297;61524;-79
2022/11/16 11:23:51;;;;;;;64.70;42.00;;;;;;;8.98;100.00;97751.95;105462;1297;62785;-79
2022/11/16 11:26:28;;;;;;;58.30;40.10;;;;;;;8.97;100.00;97751.48;105714;1294;59767;-79
2022/11/16 11:28:55;;;;;;;61.50;40.10;;;;;;;8.96;100.00;97753.55;106027;1278;59662;-77
2022/11/16 11:31:41;;;;;;;58.10;39.10;;;;;;;8.96;100.00;97749.45;106349;1278;68035;-78
2022/11/16 11:34:08;;;;;;;59.40;38.40;;;;;;;8.97;100.00;97747.05;106356;1282;69734;-78
2022/11/16 11:36:45;;;;;;;55.20;37.20;;;;;;;8.95;100.00;97745.61;106377;1285;65267;-78
2022/11/16 11:39:25;;;;;;;59.20;37.70;;;;;;;8.94;100.00;97744.84;106334;1274;59810;-78
2022/11/16 11:42:10;;;;;;;62.10;39.90;;;;;;;8.93;100.00;97740.50;106129;1281;59720;-78
2022/11/16 11:44:57;;;;;;;62.70;39.50;;;;;;;8.93;100.00;97740.52;106340;1285;75649;-78
2022/11/16 11:47:39;;;;;;;59.70;41.50;;;;;;;8.95;100.00;97736.22;106358;1286;68426;-77
2022/11/16 11:50:11;;;;;;;66.70;43.20;;;;;;;8.99;100.00;97734.86;106324;1284;64332;-78
2022/11/16 11:52:59;;;;;;;69.40;45.30;;;;;;;9.03;100.00;97731.94;106362;1278;59793;-78
2022/11/16 11:55:26;;;;;;;64.70;42.90;;;;;;;9.07;100.00;97728.77;106145;1288;61299;-78
2022/11/16 11:57:53;;;;;;;64.50;45.10;;;;;;;9.09;100.00;97723.64;106352;1279;67851;-78
2022/11/16 12:00:21;;;;;;;69.10;45.80;;;;;;;9.10;100.00;97722.83;106368;1285;61381;-78
2022/11/16 12:02:53;;;;;;;65.80;45.40;;;;;;;9.11;100.00;97723.47;106225;1286;65091;-79
2022/11/16 12:05:42;;;;;;;69.60;46.50;;;;;;;9.11;100.00;97726.13;106358;1282;59887;-78
2022/11/16 12:08:40;;;;;;;63.40;43.50;;;;;;;9.13;100.00;97724.17;106360;1284;60903;-79